Aérodrome :
LOGIN :

S'inscrire | Disclaimer

   EN    FR    IT 

 










Légende :    VFR   VFR Marginal   IFR   IFR Intensif   IFR Très Intensif
Visi : 
Plafond : 
>= 8 km
>= 3000ft
5 à 8 km
1000 à 3000 ft
1500m à 5 km
500 à 1000 ft
800 à 1500m
200 à 500 ft
< 800m
< 200 ft
Symboles :   Orages  Brouillard  Fortes neiges  Fortes précipitations  Vent > 20 kt
SIGMETs :   Divers  Orages  Givrage  Turbulence  Onde Orograph.  Cendres Volcan.







- Altitude de l'aérodrome : 325 ft
- Code IATA : BES
- Voir les cartes d'approche


LFRB - Brest

DERNIER METAR :
  • 291700Z AUTO 16019KT 9999 NCD 15/M01 Q1006 BECMG 14015G30KT

METARs EXPIRÉS :
  • 291630Z AUTO 16017KT 9999 NCD 16/02 Q1006 BECMG 14015G30KT
  • 291600Z AUTO 16016KT 140V200 9999 NCD 15/01 Q1007 BECMG 14015G30KT
  • 291530Z AUTO 16019G29KT 9999 NCD 16/02 Q1007 NOSIG
  • 291500Z AUTO 14017KT 9999 NCD 16/02 Q1007 BECMG 14015G30KT
  • 291430Z AUTO 17017KT 9999 NCD 17/03 Q1008 BECMG 14015G30KT

TAF TAF LFRB
Valide du 29 à 12h jusqu'au 30 à 18h UTC


291100Z 2912/3018 16012KT 9999 BKN020
BECMG 2912/2914 14015G30KT
BECMG 3000/3002 4000 RA BKN008
BECMG 3008/3010 9999 NSW SCT015TCU BKN020
TEMPO 3010/3012 SHRA BKN018CB
ATIS : +33 2 98 32 02 71
Pas de NOTAMs connus pour ce terrain.



MET'MAP, la Météo Aéronautique d'un coup d'oeil ! - Copyright ORBIFLY Décembre 2007 - Disclaimer

ORBIFLY MET'MAP TEAM :

Programmation & Développement : Alexandra Zaïnal
Conception & Développement : Baudouin d'Aumeries
Co-Programmation & Développement : Marc-Olivier Méhu
Soutien technique & logistique : Manuel Goepfert

Contact : metmap@orbifly.com




SOURCES & CREDITS :

   NOAA